createdAt,value
2018-03-17T00:01:08.947Z,1008.19
2018-03-17T00:02:18.695Z,1008.06
2018-03-17T00:03:28.397Z,1008.08
2018-03-17T00:04:38.096Z,1008.05
2018-03-17T00:05:48.052Z,1008.1
2018-03-17T00:06:58.002Z,1008.08
2018-03-17T00:08:08.015Z,1008.09
2018-03-17T00:09:17.978Z,1008.12
2018-03-17T00:10:27.933Z,1008.09
2018-03-17T00:11:37.896Z,1008.11
2018-03-17T00:12:47.856Z,1008.13
2018-03-17T00:13:57.813Z,1008.13
2018-03-17T00:15:07.776Z,1008.11
2018-03-17T00:16:17.746Z,1008.09
2018-03-17T00:17:27.710Z,1008.08
2018-03-17T00:18:37.163Z,1007.98
2018-03-17T00:19:46.596Z,1008.09
2018-03-17T00:20:56.319Z,1008.03
2018-03-17T00:22:06.278Z,1008.05
2018-03-17T00:23:16.026Z,1007.93
2018-03-17T00:24:25.975Z,1008.05
2018-03-17T00:25:35.412Z,1008.1
2018-03-17T00:26:44.847Z,1008.12
2018-03-17T00:27:54.023Z,1008.05
2018-03-17T00:29:03.460Z,1008.05
2018-03-17T00:30:13.446Z,1008.09
2018-03-17T00:31:22.883Z,1007.97
2018-03-17T00:32:32.827Z,1008.08
2018-03-17T00:33:42.794Z,1008.09
2018-03-17T00:34:52.498Z,1007.97
2018-03-17T00:36:02.454Z,1008.14
2018-03-17T00:37:12.151Z,1008.16
2018-03-17T00:38:21.850Z,1008.1
2018-03-17T00:39:31.831Z,1008.12
2018-03-17T00:40:41.562Z,1008.09
2018-03-17T00:41:51.001Z,1008.17
2018-03-17T00:43:00.959Z,1008.02
2018-03-17T00:44:10.664Z,1008.17
2018-03-17T00:45:20.630Z,1008.14
2018-03-17T00:46:30.331Z,1008.02
2018-03-17T00:47:40.280Z,1008.13
2018-03-17T00:48:50.040Z,1008.17
2018-03-17T00:49:59.729Z,1008.11
2018-03-17T00:51:09.693Z,1008.16
2018-03-17T00:52:19.170Z,1008.14
2018-03-17T00:53:28.865Z,1008.08
2018-03-17T00:54:38.879Z,1008.14
2018-03-17T00:55:48.584Z,1008.2
2018-03-17T00:56:58.300Z,1008.16
2018-03-17T00:58:08.255Z,1008.19
2018-03-17T00:59:17.697Z,1008.11
2018-03-17T01:00:27.660Z,1008.26
2018-03-17T01:01:37.618Z,1008.16
2018-03-17T01:02:47.316Z,1008.21
2018-03-17T01:03:56.758Z,1008.11
2018-03-17T01:05:06.457Z,1008.12
2018-03-17T01:06:16.411Z,1008.24
2018-03-17T01:07:25.858Z,1008.22
2018-03-17T01:08:35.550Z,1008.27
2018-03-17T01:09:45.268Z,1008.22
2018-03-17T01:10:54.965Z,1008.16
2018-03-17T01:12:04.662Z,1008.06
2018-03-17T01:13:14.104Z,1008.03
2018-03-17T01:14:23.542Z,1008.07
2018-03-17T01:15:33.483Z,1008.17
2018-03-17T01:16:43.173Z,1008.26
2018-03-17T01:17:53.132Z,1008.2
2018-03-17T01:19:03.079Z,1008.16
2018-03-17T01:20:12.783Z,1008.24
2018-03-17T01:21:22.483Z,1008.15
2018-03-17T01:22:31.915Z,1008.06
2018-03-17T01:23:41.608Z,1008.17
2018-03-17T01:24:51.563Z,1008.22
2018-03-17T01:26:01.271Z,1008.22
2018-03-17T01:27:10.708Z,1008.25
2018-03-17T01:28:20.151Z,1008.19
2018-03-17T01:29:29.331Z,1008.15
2018-03-17T01:30:39.023Z,1008.09
2018-03-17T01:31:48.728Z,1008.19
2018-03-17T01:32:58.688Z,1008.16
2018-03-17T01:34:08.376Z,1008.12
2018-03-17T01:35:18.080Z,1008.19
2018-03-17T01:36:28.035Z,1008.21
2018-03-17T01:37:37.720Z,1008.04
2018-03-17T01:38:47.673Z,1008.24
2018-03-17T01:39:57.633Z,1008.23
2018-03-17T01:41:06.811Z,1008.15
2018-03-17T01:42:16.253Z,1008.17
2018-03-17T01:43:26.199Z,1008.12
2018-03-17T01:44:35.893Z,1008.05
2018-03-17T01:45:45.581Z,1008.16
2018-03-17T01:46:55.269Z,1008.16
2018-03-17T01:48:05.237Z,1008.12
2018-03-17T01:49:14.928Z,1008.1
2018-03-17T01:50:24.944Z,1008.15
2018-03-17T01:51:34.906Z,1008.04
2018-03-17T01:52:44.869Z,1008.02
2018-03-17T01:53:54.563Z,1007.94
2018-03-17T01:55:04.258Z,1007.92
2018-03-17T01:56:14.220Z,1007.89
2018-03-17T01:57:24.167Z,1007.97
2018-03-17T01:58:34.115Z,1007.92
2018-03-17T01:59:44.074Z,1007.87
2018-03-17T02:00:53.769Z,1007.82
2018-03-17T02:02:03.742Z,1007.86
2018-03-17T02:03:13.441Z,1007.81
2018-03-17T02:04:23.400Z,1007.85
2018-03-17T02:05:32.574Z,1007.95
2018-03-17T02:06:42.519Z,1007.94
2018-03-17T02:07:52.464Z,1007.85
2018-03-17T02:09:02.421Z,1007.85
2018-03-17T02:10:12.381Z,1007.87
2018-03-17T02:11:22.333Z,1007.71
2018-03-17T02:12:32.280Z,1007.95
2018-03-17T02:13:42.238Z,1007.87
2018-03-17T02:14:52.184Z,1007.98
2018-03-17T02:16:02.137Z,1007.93
2018-03-17T02:17:12.131Z,1007.91
2018-03-17T02:18:22.093Z,1007.88
2018-03-17T02:19:32.042Z,1007.93
2018-03-17T02:20:41.732Z,1007.92
2018-03-17T02:21:51.181Z,1007.89
2018-03-17T02:23:00.864Z,1007.97
2018-03-17T02:24:10.285Z,1007.93
2018-03-17T02:25:20.256Z,1007.88
2018-03-17T02:26:30.023Z,1007.96
2018-03-17T02:27:39.731Z,1007.95
2018-03-17T02:28:49.412Z,1008.05
2018-03-17T02:29:59.368Z,1007.95
2018-03-17T02:31:09.071Z,1008
2018-03-17T02:32:18.514Z,1007.93
2018-03-17T02:33:28.231Z,1008
2018-03-17T02:34:38.459Z,1008.05
2018-03-17T02:35:48.005Z,1008.05
2018-03-17T02:36:57.966Z,1008.06
2018-03-17T02:38:07.666Z,1008.09
2018-03-17T02:39:17.635Z,1008.07
2018-03-17T02:40:27.339Z,1008.07
2018-03-17T02:41:37.296Z,1008.09
2018-03-17T02:42:47.004Z,1008.12
2018-03-17T02:43:56.951Z,1008.1
2018-03-17T02:45:06.921Z,1008.13
2018-03-17T02:46:16.884Z,1008.12
2018-03-17T02:47:26.863Z,1008.12
2018-03-17T02:48:36.821Z,1008.19
2018-03-17T02:49:46.783Z,1008.08
2018-03-17T02:50:56.735Z,1008.07
2018-03-17T02:52:06.443Z,1008.15
2018-03-17T02:53:16.418Z,1008.27
2018-03-17T02:54:26.140Z,1008.2
2018-03-17T02:55:36.107Z,1008.28
2018-03-17T02:56:45.796Z,1008.24
2018-03-17T02:57:55.500Z,1008.18
2018-03-17T02:59:05.457Z,1008.21
2018-03-17T03:00:15.163Z,1008.31
2018-03-17T03:01:25.191Z,1008.28
2018-03-17T03:02:35.159Z,1008.39
2018-03-17T03:03:45.143Z,1008.27
2018-03-17T03:04:55.127Z,1008.37
2018-03-17T03:06:05.095Z,1008.35
2018-03-17T03:07:15.055Z,1008.53
2018-03-17T03:08:25.014Z,1008.44
2018-03-17T03:09:34.984Z,1008.28
2018-03-17T03:10:44.680Z,1008.43
2018-03-17T03:11:54.110Z,1008.41
2018-03-17T03:13:04.065Z,1008.43
2018-03-17T03:14:13.501Z,1008.44
2018-03-17T03:15:23.721Z,1008.46
2018-03-17T03:16:33.684Z,1008.48
2018-03-17T03:17:43.635Z,1008.39
2018-03-17T03:18:53.332Z,1008.4
2018-03-17T03:20:03.282Z,1008.43
2018-03-17T03:21:13.502Z,1008.48
2018-03-17T03:22:23.457Z,1008.28
2018-03-17T03:23:33.400Z,1008.35
2018-03-17T03:24:43.367Z,1008.32
2018-03-17T03:25:53.314Z,1008.43
2018-03-17T03:27:03.279Z,1008.46
2018-03-17T03:28:13.041Z,1008.4
2018-03-17T03:29:22.989Z,1008.46
2018-03-17T03:30:32.939Z,1008.45
2018-03-17T03:31:42.142Z,1008.43
2018-03-17T03:32:52.346Z,1008.42
2018-03-17T03:34:01.786Z,1008.46
2018-03-17T03:35:11.765Z,1008.4
2018-03-17T03:36:21.489Z,1008.36
2018-03-17T03:37:31.437Z,1008.43
2018-03-17T03:38:41.123Z,1008.51
2018-03-17T03:39:50.808Z,1008.47
2018-03-17T03:41:00.779Z,1008.49
2018-03-17T03:42:10.500Z,1008.56
2018-03-17T03:43:20.457Z,1008.56
2018-03-17T03:44:30.656Z,1008.56
2018-03-17T03:45:40.349Z,1008.57
2018-03-17T03:46:50.044Z,1008.54
2018-03-17T03:48:00.018Z,1008.58
2018-03-17T03:49:09.708Z,1008.59
2018-03-17T03:50:19.658Z,1008.64
2018-03-17T03:51:29.100Z,1008.53
2018-03-17T03:52:39.052Z,1008.66
2018-03-17T03:53:48.753Z,1008.63
2018-03-17T03:54:58.460Z,1008.52
2018-03-17T03:56:08.662Z,1008.58
2018-03-17T03:57:18.616Z,1008.55
2018-03-17T03:58:28.294Z,1008.54
2018-03-17T03:59:37.984Z,1008.62
2018-03-17T04:00:47.941Z,1008.57
2018-03-17T04:01:57.876Z,1008.55
2018-03-17T04:03:07.356Z,1008.68
2018-03-17T04:04:17.047Z,1008.76
2018-03-17T04:05:26.793Z,1008.74
2018-03-17T04:06:36.807Z,1008.75
2018-03-17T04:07:47.007Z,1008.66
2018-03-17T04:08:56.703Z,1008.61
2018-03-17T04:10:06.138Z,1008.62
2018-03-17T04:11:15.837Z,1008.64
2018-03-17T04:12:25.534Z,1008.6
2018-03-17T04:13:35.224Z,1008.67
2018-03-17T04:14:45.169Z,1008.8
2018-03-17T04:15:54.855Z,1008.74
2018-03-17T04:17:04.804Z,1008.69
2018-03-17T04:18:14.754Z,1008.71
2018-03-17T04:19:24.732Z,1008.67
2018-03-17T04:20:34.679Z,1008.57
2018-03-17T04:21:44.627Z,1008.66
2018-03-17T04:22:54.574Z,1008.59
2018-03-17T04:24:04.280Z,1008.65
2018-03-17T04:25:13.990Z,1008.48
2018-03-17T04:26:23.437Z,1008.67
2018-03-17T04:27:33.389Z,1008.65
2018-03-17T04:28:43.385Z,1008.7
2018-03-17T04:29:53.080Z,1008.66
2018-03-17T04:31:02.775Z,1008.74
2018-03-17T04:32:12.203Z,1008.75
2018-03-17T04:33:22.152Z,1008.75
2018-03-17T04:34:31.863Z,1008.77
2018-03-17T04:35:41.828Z,1008.76
2018-03-17T04:36:51.780Z,1008.73
2018-03-17T04:38:00.955Z,1008.7
2018-03-17T04:39:10.651Z,1008.78
2018-03-17T04:40:20.338Z,1008.76
2018-03-17T04:41:30.035Z,1008.8
2018-03-17T04:42:39.992Z,1008.86
2018-03-17T04:43:49.940Z,1008.76
2018-03-17T04:44:59.629Z,1008.7
2018-03-17T04:46:09.578Z,1008.85
2018-03-17T04:47:19.585Z,1008.8
2018-03-17T04:48:29.416Z,1008.88
2018-03-17T04:49:38.824Z,1008.74
2018-03-17T04:50:48.776Z,1008.83
2018-03-17T04:51:58.468Z,1008.84
2018-03-17T04:53:08.413Z,1008.82
2018-03-17T04:54:18.094Z,1008.77
2018-03-17T04:55:27.782Z,1008.73
2018-03-17T04:56:37.490Z,1008.74
2018-03-17T04:57:47.441Z,1008.79
2018-03-17T04:58:56.889Z,1008.7
2018-03-17T05:00:06.845Z,1008.75
2018-03-17T05:01:16.622Z,1008.8
2018-03-17T05:02:26.322Z,1008.83
2018-03-17T05:03:35.500Z,1008.85
2018-03-17T05:04:44.931Z,1008.85
2018-03-17T05:05:54.102Z,1008.92
2018-03-17T05:07:03.793Z,1008.86
2018-03-17T05:08:13.480Z,1008.93
2018-03-17T05:09:22.907Z,1008.87
2018-03-17T05:10:32.606Z,1008.88
2018-03-17T05:11:42.574Z,1008.94
2018-03-17T05:12:52.267Z,1008.83
2018-03-17T05:14:02.220Z,1008.83
2018-03-17T05:15:11.916Z,1008.91
2018-03-17T05:16:21.671Z,1008.93
2018-03-17T05:17:31.357Z,1008.92
2018-03-17T05:18:41.049Z,1008.94
2018-03-17T05:19:50.735Z,1008.89
2018-03-17T05:21:00.689Z,1008.89
2018-03-17T05:22:10.389Z,1008.96
2018-03-17T05:23:19.816Z,1008.92
2018-03-17T05:24:29.254Z,1008.88
2018-03-17T05:25:38.953Z,1008.89
2018-03-17T05:26:47.866Z,1008.86
2018-03-17T05:27:57.806Z,1008.8
2018-03-17T05:29:07.757Z,1008.87
2018-03-17T05:30:17.459Z,1008.84
2018-03-17T05:31:27.146Z,1008.94
2018-03-17T05:32:36.841Z,1008.92
2018-03-17T05:33:46.540Z,1008.95
2018-03-17T05:34:56.244Z,1008.74
2018-03-17T05:36:05.941Z,1008.88
2018-03-17T05:37:15.890Z,1008.94
2018-03-17T05:38:25.575Z,1008.94
2018-03-17T05:39:35.272Z,1008.83
2018-03-17T05:40:44.967Z,1008.97
2018-03-17T05:41:54.925Z,1008.84
2018-03-17T05:43:04.626Z,1008.8
2018-03-17T05:44:14.317Z,1009.08
2018-03-17T05:45:24.302Z,1008.97
2018-03-17T05:46:34.504Z,1009.04
2018-03-17T05:47:44.212Z,1009.11
2018-03-17T05:48:53.643Z,1009.15
2018-03-17T05:50:03.613Z,1009
2018-03-17T05:51:13.048Z,1009.16
2018-03-17T05:52:22.741Z,1009.25
2018-03-17T05:53:32.200Z,1009.15
2018-03-17T05:54:42.161Z,1009.15
2018-03-17T05:55:52.128Z,1009.03
2018-03-17T05:57:02.082Z,1009.19
2018-03-17T05:58:12.045Z,1009.19
2018-03-17T05:59:21.729Z,1009.19
2018-03-17T06:00:31.419Z,1009.18
2018-03-17T06:01:40.613Z,1009.19
2018-03-17T06:02:50.047Z,1009.23
2018-03-17T06:03:59.471Z,1009.12
2018-03-17T06:05:09.433Z,1009.24
2018-03-17T06:06:19.416Z,1009.22
2018-03-17T06:07:29.378Z,1009.17
2018-03-17T06:08:38.809Z,1009.21
2018-03-17T06:09:48.510Z,1009.25
2018-03-17T06:10:57.950Z,1009.22
2018-03-17T06:12:07.632Z,1009.14
2018-03-17T06:13:17.584Z,1009.26
2018-03-17T06:14:27.282Z,1009.26
2018-03-17T06:15:37.550Z,1009.32
2018-03-17T06:16:47.237Z,1009.28
2018-03-17T06:17:57.190Z,1009.29
2018-03-17T06:19:06.903Z,1009.36
2018-03-17T06:20:16.869Z,1009.4
2018-03-17T06:21:26.557Z,1009.45
2018-03-17T06:22:36.267Z,1009.54
2018-03-17T06:23:45.968Z,1009.38
2018-03-17T06:24:55.395Z,1009.39
2018-03-17T06:26:05.095Z,1009.48
2018-03-17T06:27:14.789Z,1009.49
2018-03-17T06:28:24.739Z,1009.51
2018-03-17T06:29:34.432Z,1009.5
2018-03-17T06:30:43.909Z,1009.44
2018-03-17T06:31:53.730Z,1009.56
2018-03-17T06:33:03.925Z,1009.63
2018-03-17T06:34:13.886Z,1009.6
2018-03-17T06:35:23.331Z,1009.65
2018-03-17T06:36:33.287Z,1009.69
2018-03-17T06:37:42.983Z,1009.67
2018-03-17T06:38:52.412Z,1009.66
2018-03-17T06:40:02.369Z,1009.63
2018-03-17T06:41:12.311Z,1009.68
2018-03-17T06:42:22.072Z,1009.66
2018-03-17T06:43:31.239Z,1009.63
2018-03-17T06:44:40.415Z,1009.62
2018-03-17T06:45:50.383Z,1009.66
2018-03-17T06:47:00.339Z,1009.64
2018-03-17T06:48:09.781Z,1009.61
2018-03-17T06:49:19.738Z,1009.57
2018-03-17T06:50:29.436Z,1009.66
2018-03-17T06:51:38.886Z,1009.72
2018-03-17T06:52:48.337Z,1009.61
2018-03-17T06:53:58.040Z,1009.69
2018-03-17T06:55:07.994Z,1009.51
2018-03-17T06:56:18.382Z,1009.68
2018-03-17T06:57:28.089Z,1009.78
2018-03-17T06:58:37.790Z,1009.75
2018-03-17T06:59:46.978Z,1009.75
2018-03-17T07:00:56.940Z,1009.79
2018-03-17T07:02:06.634Z,1009.82
2018-03-17T07:03:16.594Z,1009.79
2018-03-17T07:04:26.042Z,1009.78
2018-03-17T07:05:35.732Z,1009.8
2018-03-17T07:06:45.424Z,1009.72
2018-03-17T07:07:54.887Z,1009.78
2018-03-17T07:09:04.322Z,1009.81
2018-03-17T07:10:14.020Z,1009.83
2018-03-17T07:11:23.719Z,1009.83
2018-03-17T07:12:33.406Z,1009.71
2018-03-17T07:13:43.360Z,1009.88
2018-03-17T07:14:53.308Z,1009.86
2018-03-17T07:16:02.749Z,1009.78
2018-03-17T07:17:12.442Z,1009.67
2018-03-17T07:18:22.407Z,1009.75
2018-03-17T07:19:31.845Z,1009.8
2018-03-17T07:20:41.020Z,1009.8
2018-03-17T07:21:50.977Z,1009.77
2018-03-17T07:23:00.414Z,1009.86
2018-03-17T07:24:10.365Z,1009.82
2018-03-17T07:25:19.589Z,1009.87
2018-03-17T07:26:29.239Z,1009.81
2018-03-17T07:27:38.410Z,1009.69
2018-03-17T07:28:48.137Z,1009.75
2018-03-17T07:29:57.842Z,1009.81
2018-03-17T07:31:07.844Z,1009.76
2018-03-17T07:32:17.535Z,1009.77
2018-03-17T07:33:27.243Z,1009.77
2018-03-17T07:34:36.948Z,1009.79
2018-03-17T07:35:46.913Z,1009.82
2018-03-17T07:36:56.390Z,1009.62
2018-03-17T07:38:06.082Z,1009.77
2018-03-17T07:39:15.777Z,1009.72
2018-03-17T07:40:24.959Z,1009.76
2018-03-17T07:41:34.407Z,1009.75
2018-03-17T07:42:44.362Z,1009.74
2018-03-17T07:43:54.321Z,1009.78
2018-03-17T07:45:03.754Z,1009.77
2018-03-17T07:46:13.202Z,1009.81
2018-03-17T07:47:22.940Z,1009.76
2018-03-17T07:48:32.635Z,1009.8
2018-03-17T07:49:42.075Z,1009.51
2018-03-17T07:50:51.774Z,1009.67
2018-03-17T07:52:01.479Z,1009.77
2018-03-17T07:53:10.914Z,1009.85
2018-03-17T07:54:20.607Z,1009.79
2018-03-17T07:55:30.603Z,1009.76
2018-03-17T07:56:40.311Z,1009.75
2018-03-17T07:57:50.026Z,1009.69
2018-03-17T07:58:59.727Z,1009.72
2018-03-17T08:00:09.674Z,1009.75
2018-03-17T08:01:19.374Z,1009.72
2018-03-17T08:02:29.093Z,1009.63
2018-03-17T08:03:38.785Z,1009.74
2018-03-17T08:04:48.486Z,1009.72
2018-03-17T08:05:57.934Z,1009.68
2018-03-17T08:07:07.907Z,1009.75
2018-03-17T08:08:17.354Z,1009.74
2018-03-17T08:09:26.793Z,1009.76
2018-03-17T08:10:36.229Z,1009.74
2018-03-17T08:11:46.197Z,1009.82
2018-03-17T08:12:55.893Z,1009.67
2018-03-17T08:14:05.605Z,1009.87
2018-03-17T08:15:15.320Z,1009.73
2018-03-17T08:16:25.270Z,1009.79
2018-03-17T08:17:34.972Z,1009.61
2018-03-17T08:18:44.679Z,1009.73
2018-03-17T08:19:54.640Z,1009.74
2018-03-17T08:21:04.609Z,1009.66
2018-03-17T08:22:14.565Z,1009.83
2018-03-17T08:23:24.577Z,1009.71
2018-03-17T08:24:34.549Z,1009.67
2018-03-17T08:25:44.564Z,1009.69
2018-03-17T08:26:54.526Z,1009.75
2018-03-17T08:28:03.960Z,1009.69
2018-03-17T08:29:13.928Z,1009.67
2018-03-17T08:30:23.892Z,1009.82
2018-03-17T08:31:33.591Z,1009.64
2018-03-17T08:32:43.299Z,1009.66
2018-03-17T08:33:53.034Z,1009.71
2018-03-17T08:35:02.474Z,1009.78
2018-03-17T08:36:12.169Z,1009.65
2018-03-17T08:37:21.878Z,1009.67
2018-03-17T08:38:31.908Z,1009.77
2018-03-17T08:39:41.629Z,1009.7
2018-03-17T08:40:51.077Z,1009.79
2018-03-17T08:42:00.522Z,1009.82
2018-03-17T08:43:10.231Z,1009.77
2018-03-17T08:44:20.194Z,1009.9
2018-03-17T08:45:30.156Z,1009.64
2018-03-17T08:46:39.348Z,1009.8
2018-03-17T08:47:49.298Z,1009.86
2018-03-17T08:48:59.001Z,1009.68
2018-03-17T08:50:08.183Z,1009.86
2018-03-17T08:51:18.176Z,1009.77
2018-03-17T08:52:27.874Z,1009.83
2018-03-17T08:53:37.836Z,1009.83
2018-03-17T08:54:47.791Z,1009.86
2018-03-17T08:55:57.764Z,1009.77
2018-03-17T08:57:07.505Z,1009.79
2018-03-17T08:58:17.211Z,1009.75
2018-03-17T08:59:26.651Z,1009.77
2018-03-17T09:00:36.359Z,1009.83
2018-03-17T09:01:46.052Z,1009.81
2018-03-17T09:02:55.745Z,1009.72
2018-03-17T09:04:05.467Z,1009.83
2018-03-17T09:05:15.427Z,1009.72
2018-03-17T09:06:25.136Z,1009.76
2018-03-17T09:07:35.107Z,1009.71
2018-03-17T09:08:44.807Z,1009.68
2018-03-17T09:09:54.536Z,1009.78
2018-03-17T09:11:04.518Z,1009.64
2018-03-17T09:12:14.492Z,1009.64
2018-03-17T09:13:24.448Z,1009.63
2018-03-17T09:14:34.423Z,1009.61
2018-03-17T09:15:43.909Z,1009.67
2018-03-17T09:16:53.616Z,1009.58
2018-03-17T09:18:03.625Z,1009.6
2018-03-17T09:19:13.679Z,1009.63
2018-03-17T09:20:23.632Z,1009.69
2018-03-17T09:21:33.590Z,1009.57
2018-03-17T09:22:43.555Z,1009.53
2018-03-17T09:23:53.526Z,1009.45
2018-03-17T09:25:03.484Z,1009.55
2018-03-17T09:26:13.446Z,1009.48
2018-03-17T09:27:23.423Z,1009.53
2018-03-17T09:28:33.397Z,1009.37
2018-03-17T09:29:43.090Z,1009.57
2018-03-17T09:30:52.535Z,1009.53
2018-03-17T09:32:02.514Z,1009.52
2018-03-17T09:33:12.211Z,1009.45
2018-03-17T09:34:21.390Z,1009.31
2018-03-17T09:35:31.115Z,1009.36
2018-03-17T09:36:41.083Z,1009.37
2018-03-17T09:37:50.875Z,1009.39
2018-03-17T09:39:00.850Z,1009.35
2018-03-17T09:40:10.296Z,1009.42
2018-03-17T09:41:20.030Z,1009.26
2018-03-17T09:42:29.739Z,1009.31
2018-03-17T09:43:39.698Z,1009.36
2018-03-17T09:44:49.408Z,1009.5
2018-03-17T09:45:59.372Z,1009.45
2018-03-17T09:47:09.066Z,1009.34
2018-03-17T09:48:18.757Z,1009.51
2018-03-17T09:49:28.738Z,1009.49
2018-03-17T09:50:38.502Z,1009.33
2018-03-17T09:51:47.680Z,1009.37
2018-03-17T09:52:57.645Z,1009.5
2018-03-17T09:54:07.341Z,1009.54
2018-03-17T09:55:17.124Z,1009.47
2018-03-17T09:56:26.977Z,1009.48
2018-03-17T09:57:36.695Z,1009.52
2018-03-17T09:58:46.644Z,1009.57
2018-03-17T09:59:56.561Z,1009.45
2018-03-17T10:01:05.748Z,1009.42
2018-03-17T10:02:15.718Z,1009.53
2018-03-17T10:03:25.680Z,1009.55
2018-03-17T10:04:35.388Z,1009.52
2018-03-17T10:05:44.838Z,1009.56
2018-03-17T10:06:54.537Z,1009.5
2018-03-17T10:08:04.761Z,1009.57
2018-03-17T10:09:14.215Z,1009.6
2018-03-17T10:10:24.192Z,1009.49
2018-03-17T10:11:34.195Z,1009.56
2018-03-17T10:12:43.599Z,1009.47
2018-03-17T10:13:53.681Z,1009.5
2018-03-17T10:15:03.662Z,1009.51
2018-03-17T10:16:13.126Z,1009.56
2018-03-17T10:17:22.862Z,1009.45
2018-03-17T10:18:32.581Z,1009.58
2018-03-17T10:19:42.052Z,1009.46
2018-03-17T10:20:51.496Z,1009.42
2018-03-17T10:22:01.208Z,1009.5
2018-03-17T10:23:11.181Z,1009.53
2018-03-17T10:24:20.919Z,1009.45
2018-03-17T10:25:30.622Z,1009.41
2018-03-17T10:26:40.589Z,1009.42
2018-03-17T10:27:50.575Z,1009.36
2018-03-17T10:29:00.541Z,1009.39
2018-03-17T10:30:09.984Z,1009.33
2018-03-17T10:31:19.971Z,1009.33
2018-03-17T10:32:29.415Z,1009.38
2018-03-17T10:33:39.132Z,1009.37
2018-03-17T10:34:48.858Z,1009.29
2018-03-17T10:35:58.574Z,1009.35
2018-03-17T10:37:08.158Z,1009.25
2018-03-17T10:38:17.866Z,1009.2
2018-03-17T10:39:27.046Z,1009.18
2018-03-17T10:40:36.768Z,1009.23
2018-03-17T10:41:46.730Z,1009.28
2018-03-17T10:42:55.933Z,1009.25
2018-03-17T10:44:05.653Z,1009.24
2018-03-17T10:45:15.367Z,1009.3
2018-03-17T10:46:25.341Z,1009.24
2018-03-17T10:47:35.334Z,1009.26
2018-03-17T10:48:45.353Z,1009.29
2018-03-17T10:49:55.363Z,1009.24
2018-03-17T10:51:05.339Z,1009.16
2018-03-17T10:52:14.788Z,1009.23
2018-03-17T10:53:24.782Z,1009.22
2018-03-17T10:54:34.253Z,1009.21
2018-03-17T10:55:43.987Z,1009.13
2018-03-17T10:56:53.704Z,1009.12
2018-03-17T10:58:03.667Z,1009.14
2018-03-17T10:59:13.641Z,1009.13
2018-03-17T11:00:23.143Z,1009.12
2018-03-17T11:01:33.120Z,1009.17
2018-03-17T11:02:43.095Z,1009.12
2018-03-17T11:03:52.289Z,1009.15
2018-03-17T11:05:02.002Z,1009.14
2018-03-17T11:06:11.500Z,1009.1
2018-03-17T11:07:21.673Z,1009.11
2018-03-17T11:08:31.366Z,1009.24
2018-03-17T11:09:41.091Z,1009.2
2018-03-17T11:10:50.552Z,1009.22
2018-03-17T11:11:59.997Z,1009.17
2018-03-17T11:13:09.709Z,1009.03
2018-03-17T11:14:19.156Z,1009.2
2018-03-17T11:15:29.121Z,1009.11
2018-03-17T11:16:39.075Z,1009.19
2018-03-17T11:17:48.527Z,1009.19
2018-03-17T11:18:58.236Z,1009.17
2018-03-17T11:20:07.942Z,1009.15
2018-03-17T11:21:17.501Z,1009.29
2018-03-17T11:22:27.473Z,1009.1
2018-03-17T11:23:37.429Z,1009.1
2018-03-17T11:24:47.138Z,1009.09
2018-03-17T11:25:56.860Z,1009.15
2018-03-17T11:27:06.562Z,1009.13
2018-03-17T11:28:16.531Z,1009.11
2018-03-17T11:29:26.621Z,1009.28
2018-03-17T11:30:36.341Z,1009.19
2018-03-17T11:31:46.302Z,1009.19
2018-03-17T11:32:56.261Z,1009.16
2018-03-17T11:34:06.216Z,1009.11
2018-03-17T11:35:15.922Z,1009.19
2018-03-17T11:36:25.619Z,1009.01
2018-03-17T11:37:35.592Z,1009.22
2018-03-17T11:38:45.057Z,1009.08
2018-03-17T11:39:54.528Z,1009.13
2018-03-17T11:41:04.493Z,1009.08
2018-03-17T11:42:13.933Z,1009.08
2018-03-17T11:43:23.649Z,1009.09
2018-03-17T11:44:33.365Z,1009.11
2018-03-17T11:45:43.080Z,1009.03
2018-03-17T11:46:53.094Z,1009.09
2018-03-17T11:48:02.839Z,1009.07
2018-03-17T11:49:12.585Z,1009.04
2018-03-17T11:50:22.037Z,1009.05
2018-03-17T11:51:31.496Z,1009.15
2018-03-17T11:52:41.469Z,1009.13
2018-03-17T11:53:51.176Z,1009.07
2018-03-17T11:55:01.141Z,1009.01
2018-03-17T11:56:10.606Z,1009.06
2018-03-17T11:57:20.320Z,1009.06
2018-03-17T11:58:30.026Z,1008.99
2018-03-17T11:59:39.990Z,1009.06
2018-03-17T12:00:49.701Z,1009.03
2018-03-17T12:01:59.659Z,1009.07
2018-03-17T12:03:09.372Z,1008.97
2018-03-17T12:04:19.352Z,1008.9
2018-03-17T12:05:29.314Z,1009.01
2018-03-17T12:06:39.027Z,1009.06
2018-03-17T12:07:49.004Z,1008.96
2018-03-17T12:08:58.968Z,1008.95
2018-03-17T12:10:08.978Z,1008.94
2018-03-17T12:11:18.714Z,1008.74
2018-03-17T12:12:28.677Z,1008.79
2018-03-17T12:13:38.397Z,1008.83
2018-03-17T12:14:48.380Z,1008.65
2018-03-17T12:15:58.092Z,1008.76
2018-03-17T12:17:07.810Z,1008.8
2018-03-17T12:18:17.269Z,1008.66
2018-03-17T12:19:26.983Z,1008.7
2018-03-17T12:20:36.955Z,1008.71
2018-03-17T12:21:46.405Z,1008.88
2018-03-17T12:22:56.382Z,1008.81
2018-03-17T12:24:06.084Z,1008.78
2018-03-17T12:25:15.812Z,1008.82
2018-03-17T12:26:25.778Z,1008.83
2018-03-17T12:27:36.029Z,1008.81
2018-03-17T12:28:45.995Z,1008.79
2018-03-17T12:29:55.467Z,1008.79
2018-03-17T12:31:05.197Z,1008.69
2018-03-17T12:32:15.165Z,1008.73
2018-03-17T12:33:24.903Z,1008.68
2018-03-17T12:34:34.370Z,1008.79
2018-03-17T12:35:44.356Z,1008.78
2018-03-17T12:36:54.067Z,1008.72
2018-03-17T12:38:03.776Z,1008.63
2018-03-17T12:39:13.491Z,1008.63
2018-03-17T12:40:22.929Z,1008.59
2018-03-17T12:41:33.128Z,1008.74
2018-03-17T12:42:42.838Z,1008.53
2018-03-17T12:43:52.813Z,1008.62
2018-03-17T12:45:02.768Z,1008.61
2018-03-17T12:46:12.244Z,1008.47
2018-03-17T12:47:22.291Z,1008.47
2018-03-17T12:48:31.743Z,1008.61
2018-03-17T12:49:41.199Z,1008.44
2018-03-17T12:50:51.175Z,1008.49
2018-03-17T12:52:01.174Z,1008.43
2018-03-17T12:53:10.863Z,1008.53
2018-03-17T12:54:20.583Z,1008.55
2018-03-17T12:55:30.287Z,1008.62
2018-03-17T12:56:40.255Z,1008.41
2018-03-17T12:57:50.235Z,1008.37
2018-03-17T12:59:00.216Z,1008.34
2018-03-17T13:00:10.194Z,1008.39
2018-03-17T13:01:19.392Z,1008.34
2018-03-17T13:02:29.380Z,1008.29
2018-03-17T13:03:39.094Z,1008.31
2018-03-17T13:04:49.266Z,1008.2
2018-03-17T13:05:58.975Z,1008.4
2018-03-17T13:07:08.692Z,1008.38
2018-03-17T13:08:18.692Z,1008.46
2018-03-17T13:09:28.687Z,1008.37
2018-03-17T13:10:37.612Z,1008.36
2018-03-17T13:11:47.584Z,1008.42
2018-03-17T13:12:56.770Z,1008.44
2018-03-17T13:14:06.745Z,1008.41
2018-03-17T13:15:16.720Z,1008.42
2018-03-17T13:16:26.691Z,1008.42
2018-03-17T13:17:36.673Z,1008.39
2018-03-17T13:18:46.394Z,1008.57
2018-03-17T13:19:56.131Z,1008.4
2018-03-17T13:21:05.608Z,1008.35
2018-03-17T13:22:15.342Z,1008.35
2018-03-17T13:23:25.060Z,1008.37
2018-03-17T13:24:34.771Z,1008.44
2018-03-17T13:25:44.491Z,1008.35
2018-03-17T13:26:54.200Z,1008.43
2018-03-17T13:28:03.917Z,1008.4
2018-03-17T13:29:13.628Z,1008.36
2018-03-17T13:30:23.347Z,1008.34
2018-03-17T13:31:33.349Z,1008.36
2018-03-17T13:32:43.325Z,1008.39
2018-03-17T13:33:53.359Z,1008.43
2018-03-17T13:35:03.091Z,1008.38
2018-03-17T13:36:12.560Z,1008.36
2018-03-17T13:37:22.268Z,1008.4
2018-03-17T13:38:32.266Z,1008.47
2018-03-17T13:39:42.250Z,1008.35
2018-03-17T13:40:52.224Z,1008.53
2018-03-17T13:42:02.200Z,1008.39
2018-03-17T13:43:12.170Z,1008.26
2018-03-17T13:44:22.163Z,1008.39
2018-03-17T13:45:31.634Z,1008.4
2018-03-17T13:46:41.631Z,1008.45
2018-03-17T13:47:51.346Z,1008.41
2018-03-17T13:49:01.077Z,1008.41
2018-03-17T13:50:10.536Z,1008.38
2018-03-17T13:51:20.512Z,1008.51
2018-03-17T13:52:30.225Z,1008.45
2018-03-17T13:53:39.674Z,1008.43
2018-03-17T13:54:49.122Z,1008.48
2018-03-17T13:55:58.575Z,1008.49
2018-03-17T13:57:08.292Z,1008.53
2018-03-17T13:58:18.000Z,1008.43
2018-03-17T13:59:27.713Z,1008.49
2018-03-17T14:00:37.415Z,1008.45
2018-03-17T14:01:47.390Z,1008.35
2018-03-17T14:02:57.115Z,1008.51
2018-03-17T14:04:06.566Z,1008.59
2018-03-17T14:05:16.536Z,1008.53
2018-03-17T14:06:26.252Z,1008.62